Time;durP1;ratioP1;P1;durP2;ratioP2;P2;SDS_P1;SDS_P2;PMS_P1;PMS_P2;Temp;Humidity;BMP_temperature;BMP_pressure;BME280_temperature;BME280_humidity;BME280_pressure;Samples;Min_cycle;Max_cycle;Signal;HPM_P1;HPM_P2
2022/11/06 00:03:46;;;;;;;14.07;9.75;;;11.30;81.20;;;;;;10868359;32;20024;-76
2022/11/06 00:09:49;;;;;;;10.98;8.70;;;11.20;81.40;;;;;;10868074;32;20043;-76
2022/11/06 00:15:51;;;;;;;15.15;10.45;;;11.20;81.60;;;;;;10867880;32;20031;-76
2022/11/06 00:21:53;;;;;;;9.63;6.03;;;11.30;81.50;;;;;;10857760;27;20361;-76
2022/11/06 00:27:56;;;;;;;8.75;6.55;;;11.30;81.30;;;;;;10751892;33;20055;-76
2022/11/06 00:33:59;;;;;;;10.90;7.80;;;11.20;81.50;;;;;;10747704;33;20064;-76
2022/11/06 00:40:02;;;;;;;11.50;7.07;;;11.20;81.40;;;;;;10751527;33;20024;-76
2022/11/06 00:46:07;;;;;;;13.80;8.95;;;11.20;81.40;;;;;;10750406;33;20024;-76
2022/11/06 00:52:09;;;;;;;11.70;8.57;;;11.20;81.20;;;;;;10751294;33;20055;-76
2022/11/06 00:58:11;;;;;;;15.98;11.57;;;11.30;81.40;;;;;;10738099;33;20033;-76
2022/11/06 01:04:16;;;;;;;12.07;8.82;;;11.30;81.40;;;;;;10750960;33;20317;-76
2022/11/06 01:10:18;;;;;;;13.48;9.45;;;11.20;81.30;;;;;;10752821;33;20072;-76
2022/11/06 01:16:22;;;;;;;12.15;7.78;;;11.20;81.10;;;;;;10755354;33;20025;-76
2022/11/06 01:22:24;;;;;;;12.13;8.25;;;11.20;81.10;;;;;;10744135;33;20375;-76
2022/11/06 01:28:26;;;;;;;10.32;6.93;;;11.10;81.20;;;;;;10756161;33;20021;-76
2022/11/06 01:34:39;;;;;;;12.00;8.85;;;11.10;81.10;;;;;;10753565;33;20122;-76
2022/11/06 01:40:46;;;;;;;12.43;8.35;;;11.00;81.20;;;;;;10756663;33;20024;-76
2022/11/06 01:46:48;;;;;;;13.75;8.88;;;10.90;81.20;;;;;;10755894;33;20436;-76
2022/11/06 01:52:51;;;;;;;10.80;8.23;;;11.00;81.10;;;;;;10756140;33;20032;-77
2022/11/06 01:58:54;;;;;;;11.35;8.88;;;10.90;81.10;;;;;;10755967;33;20390;-76
2022/11/06 02:04:56;;;;;;;14.63;9.55;;;10.90;81.00;;;;;;10756100;33;20443;-76
2022/11/06 02:10:59;;;;;;;11.80;7.40;;;10.90;80.80;;;;;;10755856;33;20076;-76
2022/11/06 02:17:30;;;;;;;11.57;7.50;;;10.90;81.00;;;;;;10751534;33;20416;-76
2022/11/06 02:23:48;;;;;;;11.45;8.05;;;10.90;81.40;;;;;;10751363;33;20059;-76
2022/11/06 02:29:58;;;;;;;10.93;7.87;;;10.80;81.90;;;;;;10742494;33;20051;-76
2022/11/06 02:36:07;;;;;;;9.32;5.93;;;10.70;82.70;;;;;;10755189;33;20195;-77
2022/11/06 02:42:14;;;;;;;11.27;6.47;;;10.70;83.00;;;;;;10750754;33;20024;-77
2022/11/06 02:48:36;;;;;;;8.27;6.35;;;10.70;82.80;;;;;;10751261;33;20028;-76
2022/11/06 02:54:44;;;;;;;9.48;6.80;;;10.70;82.50;;;;;;10754684;33;20385;-76
2022/11/06 03:01:12;;;;;;;10.63;6.32;;;10.70;82.60;;;;;;10754217;33;20041;-76
2022/11/06 03:07:37;;;;;;;7.28;5.32;;;10.70;82.70;;;;;;10754206;33;20046;-76
2022/11/06 03:13:48;;;;;;;8.02;5.00;;;10.70;82.50;;;;;;10754021;33;20055;-77
2022/11/06 03:19:50;;;;;;;9.15;5.05;;;10.30;82.30;;;;;;10740833;33;20029;-76
2022/11/06 03:26:44;;;;;;;12.50;6.72;;;10.20;82.70;;;;;;10743353;33;20036;-77
2022/11/06 03:33:03;;;;;;;8.75;5.30;;;10.30;82.60;;;;;;10749865;33;20051;-76
2022/11/06 03:39:10;;;;;;;12.25;5.78;;;10.30;82.30;;;;;;10754397;33;20461;-76
2022/11/06 03:45:18;;;;;;;9.38;5.03;;;10.30;82.40;;;;;;10753062;33;20029;-77
2022/11/06 03:51:31;;;;;;;7.78;5.50;;;10.30;82.30;;;;;;10739874;33;20067;-76
2022/11/06 03:57:50;;;;;;;9.15;4.70;;;10.10;82.50;;;;;;10752679;33;20025;-76
2022/11/06 04:04:10;;;;;;;;;;;10.00;82.60;;;;;;10752884;33;20051;-76
2022/11/06 04:16:38;;;;;;;7.62;5.45;;;10.10;82.40;;;;;;10753386;33;20341;-77
2022/11/06 04:22:54;;;;;;;8.35;5.45;;;10.20;82.30;;;;;;10738879;33;20083;-77
2022/11/06 04:29:17;;;;;;;9.32;6.03;;;10.20;82.20;;;;;;10738914;33;20299;-76
2022/11/06 04:36:00;;;;;;;5.57;4.47;;;10.10;82.20;;;;;;10749798;33;20064;-76
2022/11/06 04:42:32;;;;;;;9.10;6.78;;;10.10;82.50;;;;;;10747437;33;20074;-76
2022/11/06 04:48:36;;;;;;;9.30;6.28;;;10.20;82.50;;;;;;10566313;33;20050;-76
2022/11/06 04:54:39;;;;;;;8.60;5.60;;;10.20;82.40;;;;;;10568377;33;20477;-76
2022/11/06 05:00:46;;;;;;;6.07;4.25;;;10.20;82.20;;;;;;10568193;33;20034;-76
2022/11/06 05:06:48;;;;;;;10.07;6.20;;;10.10;82.10;;;;;;10568141;33;20077;-77
2022/11/06 05:12:53;;;;;;;7.57;5.25;;;10.00;82.20;;;;;;10569019;33;20049;-76
2022/11/06 05:18:56;;;;;;;9.57;5.85;;;10.00;82.00;;;;;;10567147;33;20038;-76
2022/11/06 05:24:58;;;;;;;9.50;7.05;;;10.00;82.20;;;;;;10711830;33;20029;-77
2022/11/06 05:31:01;;;;;;;9.25;5.53;;;10.00;81.90;;;;;;10750361;33;20436;-77
2022/11/06 05:37:04;;;;;;;7.45;5.35;;;10.00;82.00;;;;;;10747430;33;20021;-76
2022/11/06 05:43:06;;;;;;;6.47;3.55;;;10.00;82.20;;;;;;10750092;33;20028;-76
2022/11/06 05:49:08;;;;;;;7.00;4.57;;;9.90;82.10;;;;;;10750094;33;20390;-76
2022/11/06 05:55:10;;;;;;;6.62;3.75;;;9.90;82.00;;;;;;10738244;33;20055;-76
2022/11/06 06:01:12;;;;;;;7.53;4.35;;;10.00;82.10;;;;;;10756030;33;20025;-76
2022/11/06 06:07:14;;;;;;;7.37;4.03;;;9.90;82.00;;;;;;10755842;33;20063;-76
2022/11/06 06:13:17;;;;;;;6.80;4.53;;;9.90;82.00;;;;;;10755889;33;20050;-77
2022/11/06 06:19:19;;;;;;;6.20;4.45;;;9.80;82.10;;;;;;10755545;33;20028;-76
2022/11/06 06:25:25;;;;;;;7.07;3.60;;;9.90;82.00;;;;;;10751206;33;20417;-76
2022/11/06 06:31:43;;;;;;;5.70;3.83;;;9.90;81.90;;;;;;10752607;33;20037;-76
2022/11/06 06:37:54;;;;;;;3.90;2.75;;;9.70;82.10;;;;;;10755085;33;20383;-76
2022/11/06 06:43:56;;;;;;;4.47;3.10;;;9.70;82.30;;;;;;10746950;33;20443;-76
2022/11/06 06:50:00;;;;;;;4.25;2.92;;;9.70;82.30;;;;;;10754523;33;20051;-76
2022/11/06 06:56:02;;;;;;;4.12;2.75;;;9.70;82.30;;;;;;10754591;33;20328;-77
2022/11/06 07:02:04;;;;;;;5.18;3.10;;;9.70;82.40;;;;;;10754399;33;20028;-76
2022/11/06 07:08:06;;;;;;;5.72;3.60;;;9.70;82.50;;;;;;10749482;33;20036;-77
2022/11/06 07:14:09;;;;;;;3.85;2.85;;;9.90;82.60;;;;;;10750014;33;20044;-77
2022/11/06 07:20:11;;;;;;;8.95;2.87;;;9.90;82.50;;;;;;10753904;33;20487;-77
2022/11/06 07:26:13;;;;;;;4.22;2.60;;;10.00;82.60;;;;;;10753644;33;20039;-76
2022/11/06 07:32:16;;;;;;;6.87;3.03;;;10.10;82.60;;;;;;10740601;33;20424;-77
2022/11/06 07:38:18;;;;;;;4.37;2.72;;;10.20;82.70;;;;;;10749979;32;20348;-76
2022/11/06 07:44:28;;;;;;;4.25;2.67;;;10.40;82.80;;;;;;10753268;33;20029;-76
2022/11/06 07:50:31;;;;;;;3.22;2.10;;;10.40;83.00;;;;;;10740060;33;20055;-77
2022/11/06 07:56:33;;;;;;;3.47;1.80;;;10.50;83.50;;;;;;10752796;33;20033;-77
2022/11/06 08:02:35;;;;;;;2.87;1.67;;;10.50;83.60;;;;;;10752655;33;20047;-77
2022/11/06 08:08:38;;;;;;;2.78;1.62;;;10.70;83.60;;;;;;10752532;33;20055;-77
2022/11/06 08:14:40;;;;;;;1.83;1.23;;;10.80;83.50;;;;;;10752371;33;20042;-77
2022/11/06 08:20:46;;;;;;;1.90;0.90;;;10.90;83.40;;;;;;10751746;33;20337;-77
2022/11/06 08:27:05;;;;;;;3.17;1.45;;;11.00;83.30;;;;;;10720345;27;20052;-77
2022/11/06 08:33:10;;;;;;;2.03;1.33;;;11.10;83.10;;;;;;10715298;33;20052;-77
2022/11/06 08:39:13;;;;;;;0.88;0.60;;;11.20;83.00;;;;;;10715177;33;20055;-77
2022/11/06 08:45:15;;;;;;;1.67;0.90;;;11.30;83.00;;;;;;10711319;33;20055;-77
2022/11/06 08:51:18;;;;;;;2.03;1.23;;;11.40;82.80;;;;;;10715257;33;20397;-77
2022/11/06 08:57:44;;;;;;;1.20;0.90;;;11.50;82.90;;;;;;10711104;33;20044;-77
2022/11/06 09:03:46;;;;;;;0.93;0.93;;;11.70;82.50;;;;;;10785170;32;20329;-77
2022/11/06 09:09:48;;;;;;;2.05;1.20;;;11.80;82.10;;;;;;10714749;33;20021;-77
2022/11/06 09:15:50;;;;;;;1.15;1.05;;;11.90;81.70;;;;;;10713589;33;20334;-77
2022/11/06 09:21:52;;;;;;;1.42;1.20;;;12.00;81.50;;;;;;10713960;33;20025;-77
2022/11/06 09:27:54;;;;;;;4.30;2.42;;;12.20;81.40;;;;;;10714292;33;20318;-77
2022/11/06 09:33:57;;;;;;;3.72;2.17;;;12.20;81.00;;;;;;10715050;33;20045;-77
2022/11/06 09:40:45;;;;;;;3.53;1.65;;;12.40;80.80;;;;;;10763508;32;20051;-75
2022/11/06 09:46:48;;;;;;;3.35;1.65;;;12.60;80.30;;;;;;10720298;33;20044;-75
2022/11/06 09:52:55;;;;;;;1.90;1.15;;;12.70;80.00;;;;;;10720109;33;20056;-75
2022/11/06 09:59:02;;;;;;;3.90;1.42;;;12.80;79.30;;;;;;10715820;33;20071;-76
2022/11/06 10:05:31;;;;;;;1.40;0.80;;;13.00;78.90;;;;;;10719852;33;20386;-76
2022/11/06 10:11:49;;;;;;;1.62;1.40;;;13.10;78.20;;;;;;10719484;33;20028;-76
2022/11/06 10:18:38;;;;;;;1.33;1.23;;;13.20;77.60;;;;;;10769318;32;20326;-75
2022/11/06 10:24:46;;;;;;;1.80;0.80;;;13.40;77.40;;;;;;10755655;33;20032;-76
2022/11/06 10:31:35;;;;;;;1.90;1.27;;;13.50;77.40;;;;;;10757273;33;20447;-76
2022/11/06 10:37:49;;;;;;;1.67;1.20;;;13.70;76.50;;;;;;10647099;33;20044;-78
2022/11/06 10:44:11;;;;;;;1.08;0.98;;;13.80;75.30;;;;;;10644967;33;20153;-76
2022/11/06 10:50:15;;;;;;;0.80;0.77;;;14.10;74.20;;;;;;10644741;33;20033;-77
2022/11/06 10:56:34;;;;;;;1.60;0.90;;;14.30;74.00;;;;;;10644785;33;20371;-77
2022/11/06 11:02:50;;;;;;;2.22;1.55;;;14.60;73.30;;;;;;10786400;33;20031;-76
2022/11/06 11:08:53;;;;;;;1.73;1.30;;;14.80;73.20;;;;;;10764689;33;20048;-75
2022/11/06 11:15:20;;;;;;;2.30;1.48;;;15.10;72.60;;;;;;10803510;32;20060;-76
2022/11/06 11:21:26;;;;;;;2.40;1.25;;;15.30;72.00;;;;;;10906897;32;20039;-76
2022/11/06 11:27:31;;;;;;;2.97;1.77;;;15.30;71.30;;;;;;10851747;32;20330;-75
2022/11/06 11:33:34;;;;;;;1.95;1.20;;;15.50;70.90;;;;;;10681112;33;20044;-75
2022/11/06 11:39:40;;;;;;;3.30;1.48;;;15.50;69.30;;;;;;10680854;33;20047;-74
2022/11/06 11:45:42;;;;;;;1.85;1.35;;;15.60;68.80;;;;;;10680818;33;20029;-75
2022/11/06 11:51:48;;;;;;;4.12;1.30;;;15.60;68.50;;;;;;10680993;33;20346;-74
2022/11/06 11:57:53;;;;;;;3.90;1.42;;;15.60;67.30;;;;;;10754665;32;20369;-75
2022/11/06 12:03:56;;;;;;;3.42;1.87;;;15.50;66.90;;;;;;10754579;32;20037;-75
2022/11/06 12:10:00;;;;;;;1.67;1.52;;;15.40;66.30;;;;;;10676280;33;20055;-77
2022/11/06 12:16:12;;;;;;;2.15;1.62;;;15.40;66.60;;;;;;10729394;32;20051;-77
2022/11/06 12:22:30;;;;;;;2.08;1.60;;;15.40;66.20;;;;;;10679777;33;20056;-76
2022/11/06 12:28:36;;;;;;;1.65;1.35;;;15.50;65.60;;;;;;10679794;33;20017;-76
2022/11/06 12:34:54;;;;;;;2.12;1.50;;;15.50;65.50;;;;;;10675665;33;20029;-75
2022/11/06 12:41:18;;;;;;;3.53;1.95;;;15.40;65.10;;;;;;10679409;33;20044;-75
2022/11/06 12:47:32;;;;;;;2.33;1.25;;;15.40;65.30;;;;;;10679303;33;20354;-74
2022/11/06 12:53:45;;;;;;;2.62;1.60;;;15.40;65.50;;;;;;10676576;33;20382;-77
2022/11/06 12:59:56;;;;;;;2.17;1.27;;;15.50;65.30;;;;;;10678914;33;20059;-76
2022/11/06 13:06:34;;;;;;;2.90;1.87;;;15.60;65.10;;;;;;10678218;33;20018;-76
2022/11/06 13:12:46;;;;;;;2.85;1.83;;;15.70;64.90;;;;;;10678666;33;20029;-76
2022/11/06 13:18:57;;;;;;;4.40;2.00;;;15.60;64.60;;;;;;10678642;33;20338;-76
2022/11/06 13:25:23;;;;;;;3.97;2.45;;;15.60;64.70;;;;;;10674464;33;20402;-76
2022/11/06 13:31:41;;;;;;;3.42;2.22;;;15.60;64.40;;;;;;10678398;33;20059;-77
2022/11/06 13:37:47;;;;;;;3.17;1.63;;;15.60;64.20;;;;;;10674110;32;20383;-76
2022/11/06 13:44:21;;;;;;;5.53;1.50;;;15.70;64.40;;;;;;10678141;33;20412;-75
2022/11/06 13:50:47;;;;;;;2.53;1.52;;;15.70;64.40;;;;;;10677554;33;20037;-75
2022/11/06 13:57:11;;;;;;;3.30;1.70;;;15.70;64.30;;;;;;10677676;33;20025;-75
2022/11/06 14:03:48;;;;;;;2.53;1.73;;;15.60;64.40;;;;;;10673592;33;20346;-75
2022/11/06 14:09:50;;;;;;;2.12;1.48;;;15.70;64.50;;;;;;10751573;32;20378;-75
2022/11/06 14:16:13;;;;;;;1.87;1.62;;;15.70;64.60;;;;;;10761768;32;20033;-75
2022/11/06 14:22:22;;;;;;;2.10;1.70;;;15.70;64.70;;;;;;10766072;32;20055;-76
2022/11/06 14:28:33;;;;;;;;;;;15.70;64.80;;;;;;10719577;33;20017;-76
2022/11/06 14:34:38;;;;;;;4.57;1.70;;;15.70;64.50;;;;;;10794031;32;19928;-76
2022/11/06 14:40:40;;;;;;;2.47;1.83;;;15.70;64.60;;;;;;10714717;33;20087;-75
2022/11/06 14:46:50;;;;;;;2.15;1.35;;;15.70;64.80;;;;;;10718776;33;20305;-75
2022/11/06 14:53:18;;;;;;;2.05;1.30;;;15.70;64.90;;;;;;10714943;33;20055;-75
2022/11/06 14:59:25;;;;;;;1.90;1.33;;;16.00;64.60;;;;;;10718459;33;20474;-75
2022/11/06 15:05:29;;;;;;;1.98;1.35;;;15.90;65.10;;;;;;10717961;33;20026;-75
2022/11/06 15:11:31;;;;;;;3.70;1.65;;;15.70;65.90;;;;;;10713828;33;20436;-75
2022/11/06 15:17:35;;;;;;;1.05;0.98;;;15.50;66.30;;;;;;10767281;32;20032;-75
2022/11/06 15:24:23;;;;;;;1.62;1.35;;;15.20;66.80;;;;;;10716716;33;20037;-75
2022/11/06 15:30:26;;;;;;;2.00;1.45;;;15.00;67.10;;;;;;10714805;33;20032;-75
2022/11/06 15:36:36;;;;;;;9.23;1.95;;;14.80;67.60;;;;;;10718528;33;20025;-75
2022/11/06 15:42:38;;;;;;;4.82;2.22;;;14.70;67.90;;;;;;10719325;33;20460;-75
2022/11/06 15:48:40;;;;;;;2.83;1.67;;;14.50;68.40;;;;;;10718986;33;20527;-75
2022/11/06 15:54:48;;;;;;;4.30;1.45;;;14.40;68.80;;;;;;10718799;33;20033;-75
2022/11/06 16:00:50;;;;;;;1.30;1.20;;;14.30;69.20;;;;;;10718645;33;20074;-75
2022/11/06 16:07:26;;;;;;;1.23;0.90;;;14.20;69.50;;;;;;10720414;33;20029;-75
2022/11/06 16:13:30;;;;;;;1.73;1.27;;;14.20;69.80;;;;;;10713502;33;20037;-75
2022/11/06 16:19:35;;;;;;;2.45;1.80;;;14.10;70.10;;;;;;10715757;33;20329;-75
2022/11/06 16:25:38;;;;;;;2.12;1.52;;;14.00;70.30;;;;;;10278641;33;17037147;-75
2022/11/06 16:31:40;;;;;;;2.87;1.45;;;14.00;70.60;;;;;;10826625;32;20082;-75
2022/11/06 16:37:43;;;;;;;2.70;1.85;;;13.90;70.90;;;;;;10826322;32;20059;-76
2022/11/06 16:43:57;;;;;;;1.92;1.35;;;13.80;71.20;;;;;;10826769;32;20040;-75
2022/11/06 16:50:00;;;;;;;2.28;1.70;;;13.80;71.50;;;;;;10752105;33;20056;-75
2022/11/06 16:56:06;;;;;;;4.78;2.78;;;13.70;71.70;;;;;;10724196;33;20398;-75
2022/11/06 17:02:23;;;;;;;5.15;2.80;;;13.70;72.00;;;;;;10678551;33;20045;-75
2022/11/06 17:08:36;;;;;;;4.80;3.33;;;13.70;72.20;;;;;;10724064;33;20051;-75
2022/11/06 17:14:42;;;;;;;6.47;4.03;;;13.60;72.40;;;;;;10678579;33;20291;-75
2022/11/06 17:20:48;;;;;;;7.80;5.28;;;13.50;72.60;;;;;;10678328;33;20026;-76
2022/11/06 17:26:53;;;;;;;11.07;6.28;;;13.40;72.90;;;;;;10674701;33;20080;-75
2022/11/06 17:32:55;;;;;;;21.62;15.00;;;13.30;73.10;;;;;;10678238;33;20307;-76
2022/11/06 17:38:57;;;;;;;16.65;10.32;;;13.30;73.50;;;;;;10678165;33;20398;-75
2022/11/06 17:44:59;;;;;;;14.98;9.65;;;13.30;73.90;;;;;;10675839;33;20037;-76
2022/11/06 17:57:44;;;;;;;11.90;7.78;;;13.20;74.40;;;;;;10679938;33;20048;-76
2022/11/06 18:03:47;;;;;;;21.92;13.15;;;13.20;74.80;;;;;;10729241;33;20059;-76
2022/11/06 18:09:49;;;;;;;17.60;11.23;;;13.10;75.40;;;;;;10683657;33;20326;-76
2022/11/06 18:15:52;;;;;;;13.82;9.75;;;13.00;76.30;;;;;;10683491;33;20084;-76
2022/11/06 18:21:54;;;;;;;15.95;12.37;;;12.90;76.90;;;;;;10683149;33;20033;-76
2022/11/06 18:27:57;;;;;;;13.48;8.88;;;12.90;77.50;;;;;;10732754;32;20060;-75
2022/11/06 18:34:00;;;;;;;12.55;6.75;;;12.80;78.00;;;;;;10682941;33;20029;-75
2022/11/06 18:40:03;;;;;;;14.13;8.30;;;12.70;77.90;;;;;;10682518;33;20060;-75
2022/11/06 18:46:11;;;;;;;8.80;6.50;;;12.70;77.80;;;;;;10682597;33;20021;-76
2022/11/06 18:52:13;;;;;;;10.93;6.00;;;12.70;77.70;;;;;;10682394;33;20033;-75
2022/11/06 18:58:18;;;;;;;11.32;6.35;;;12.70;77.70;;;;;;10682317;33;20025;-75
2022/11/06 19:04:22;;;;;;;11.52;6.93;;;12.60;77.70;;;;;;10678359;33;20199;-75
2022/11/06 19:10:24;;;;;;;14.27;9.15;;;12.60;77.80;;;;;;10677841;33;20060;-75
2022/11/06 19:16:26;;;;;;;16.25;10.00;;;12.60;77.90;;;;;;10681777;33;20021;-76
2022/11/06 19:22:39;;;;;;;11.32;8.35;;;12.60;78.10;;;;;;10681380;33;20394;-76
2022/11/06 19:28:43;;;;;;;10.18;6.65;;;12.50;78.10;;;;;;10681413;33;20048;-76
2022/11/06 19:34:45;;;;;;;10.40;8.40;;;12.50;78.10;;;;;;10681307;33;20029;-76
2022/11/06 19:40:59;;;;;;;13.27;9.30;;;12.50;78.10;;;;;;10676610;33;20081;-75
2022/11/06 19:47:01;;;;;;;13.90;9.02;;;12.40;78.20;;;;;;10680932;33;20056;-76
2022/11/06 19:53:05;;;;;;;11.25;9.45;;;12.40;78.30;;;;;;10680604;33;20052;-76
2022/11/06 19:59:07;;;;;;;9.20;6.45;;;12.40;78.40;;;;;;10680469;33;20044;-76
2022/11/06 20:05:12;;;;;;;11.45;8.48;;;12.40;78.40;;;;;;10680517;33;20055;-76
2022/11/06 20:11:14;;;;;;;11.12;7.28;;;12.40;78.50;;;;;;10678699;33;20030;-75
2022/11/06 20:17:19;;;;;;;10.57;7.53;;;12.30;78.50;;;;;;10677554;33;20033;-76
2022/11/06 20:23:21;;;;;;;13.30;8.50;;;12.40;78.60;;;;;;10679241;33;20061;-76
2022/11/06 20:29:26;;;;;;;14.30;9.05;;;12.30;78.60;;;;;;10728876;32;20386;-76
2022/11/06 20:35:29;;;;;;;11.27;8.50;;;12.30;78.80;;;;;;10675589;33;20382;-75
2022/11/06 20:41:32;;;;;;;12.93;9.02;;;12.20;78.80;;;;;;10675402;33;20061;-75
2022/11/06 20:47:34;;;;;;;16.58;12.73;;;12.20;79.00;;;;;;10679365;33;20021;-75
2022/11/06 20:53:38;;;;;;;16.30;11.65;;;12.20;79.00;;;;;;10679353;33;20311;-76
2022/11/06 20:59:39;;;;;;;10.63;8.30;;;12.20;79.40;;;;;;10676255;33;20029;-76
2022/11/06 21:05:42;;;;;;;10.40;7.97;;;12.20;79.40;;;;;;10678966;33;20080;-76
2022/11/06 21:11:44;;;;;;;14.50;9.63;;;12.10;79.50;;;;;;10678739;33;20048;-75
2022/11/06 21:17:46;;;;;;;12.80;9.52;;;12.00;79.70;;;;;;10679823;33;20017;-76
2022/11/06 21:24:16;;;;;;;12.15;9.48;;;12.00;80.00;;;;;;10676546;33;20048;-75
2022/11/06 21:30:18;;;;;;;13.82;8.50;;;12.00;80.30;;;;;;10733201;32;20039;-75
2022/11/06 21:36:32;;;;;;;12.88;8.65;;;11.90;80.20;;;;;;10684707;33;20017;-75
2022/11/06 21:42:34;;;;;;;11.25;9.82;;;11.90;80.10;;;;;;10684477;33;20048;-75
2022/11/06 21:48:37;;;;;;;14.30;9.35;;;11.80;80.20;;;;;;10681825;33;20025;-75
2022/11/06 22:01:05;;;;;;;16.58;10.35;;;11.80;80.80;;;;;;10682370;33;20029;-76
2022/11/06 22:07:07;;;;;;;14.98;8.68;;;11.70;80.70;;;;;;10683838;33;20017;-76
2022/11/06 22:13:09;;;;;;;15.50;9.25;;;11.60;80.70;;;;;;10683591;33;20032;-76
2022/11/06 22:19:12;;;;;;;18.67;11.55;;;11.60;80.80;;;;;;10679386;33;20527;-76
2022/11/06 22:25:21;;;;;;;14.40;8.95;;;11.50;80.70;;;;;;10744965;32;20055;-76
2022/11/06 22:31:23;;;;;;;11.95;9.90;;;11.50;80.70;;;;;;10683232;33;20040;-76
2022/11/06 22:37:49;;;;;;;16.45;12.90;;;11.50;80.90;;;;;;10682653;33;20026;-75
2022/11/06 22:43:56;;;;;;;15.50;13.80;;;11.50;81.10;;;;;;10682776;33;20029;-75
2022/11/06 22:49:58;;;;;;;16.42;12.45;;;11.50;81.30;;;;;;10682732;33;20386;-75
2022/11/06 22:56:02;;;;;;;12.82;10.02;;;11.30;81.80;;;;;;10682456;33;20009;-76
2022/11/06 23:02:05;;;;;;;12.95;10.18;;;11.20;81.80;;;;;;10731803;32;20029;-76
2022/11/06 23:08:07;;;;;;;15.23;10.10;;;11.20;81.60;;;;;;10682160;33;20386;-76
2022/11/06 23:14:09;;;;;;;15.30;11.27;;;11.20;81.50;;;;;;10727314;33;20029;-75
2022/11/06 23:20:10;;;;;;;15.45;12.43;;;11.20;81.70;;;;;;10680856;33;20029;-75
2022/11/06 23:26:15;;;;;;;15.57;11.10;;;11.20;81.70;;;;;;10680368;33;20299;-75
2022/11/06 23:32:17;;;;;;;17.10;12.32;;;11.10;81.60;;;;;;10677525;33;20381;-75
2022/11/06 23:38:19;;;;;;;16.50;11.90;;;11.00;81.70;;;;;;10677305;33;20021;-75
2022/11/06 23:50:45;;;;;;;13.65;10.45;;;11.00;81.50;;;;;;10680330;33;20390;-74
2022/11/06 23:56:47;;;;;;;13.05;10.82;;;11.00;81.50;;;;;;10742572;32;20024;-75
